createdAt,value
2017-01-05T00:00:00.065Z,99.99
2017-01-05T00:01:00.107Z,99.99
2017-01-05T00:02:00.095Z,99.9
2017-01-05T00:03:00.109Z,99.9
2017-01-05T00:04:00.125Z,99.8
2017-01-05T00:05:00.138Z,99.9
2017-01-05T00:06:00.156Z,99.52
2017-01-05T00:07:00.168Z,99.8
2017-01-05T00:08:00.182Z,99.62
2017-01-05T00:09:00.203Z,99.38
2017-01-05T00:10:00.211Z,98.81
2017-01-05T00:11:15.143Z,98.81
2017-01-05T00:12:00.239Z,98.52
2017-01-05T00:13:00.254Z,98.62
2017-01-05T00:14:00.269Z,98.81
2017-01-05T00:15:00.284Z,98.52
2017-01-05T00:16:00.298Z,98.52
2017-01-05T00:17:00.314Z,99
2017-01-05T00:18:00.327Z,98.81
2017-01-05T00:19:00.342Z,98.9
2017-01-05T00:20:00.360Z,98.81
2017-01-05T00:22:00.383Z,98.33
2017-01-05T00:23:00.399Z,98.14
2017-01-05T00:24:00.419Z,98.05
2017-01-05T00:25:00.427Z,98.9
2017-01-05T00:26:00.441Z,98.62
2017-01-05T00:27:15.373Z,98.05
2017-01-05T00:28:00.470Z,98.05
2017-01-05T00:29:00.485Z,98.33
2017-01-05T00:30:00.500Z,98.43
2017-01-05T00:31:00.513Z,97.96
2017-01-05T00:32:00.529Z,97.82
2017-01-05T00:33:00.541Z,97.67
2017-01-05T00:34:00.557Z,97.39
2017-01-05T00:35:00.570Z,97.86
2017-01-05T00:36:00.587Z,97.53
2017-01-05T00:37:00.599Z,97.34
2017-01-05T00:39:00.630Z,97.01
2017-01-05T00:40:00.642Z,97.86
2017-01-05T00:41:00.656Z,97.49
2017-01-05T00:42:15.589Z,97.72
2017-01-05T00:43:00.686Z,97.3
2017-01-05T00:44:00.703Z,97.67
2017-01-05T00:45:00.716Z,97.58
2017-01-05T00:46:00.733Z,97.58
2017-01-05T00:47:00.743Z,97.86
2017-01-05T00:48:00.759Z,97.67
2017-01-05T00:49:00.772Z,97.39
2017-01-05T00:50:00.788Z,97.39
2017-01-05T00:53:00.829Z,97.58
2017-01-05T00:54:00.845Z,97.96
2017-01-05T00:55:00.857Z,97.39
2017-01-05T00:56:00.876Z,97.11
2017-01-05T00:57:00.885Z,97.2
2017-01-05T00:58:00.901Z,97.11
2017-01-05T00:59:00.915Z,97.39
2017-01-05T01:00:00.929Z,97.3
2017-01-05T01:01:00.943Z,97.2
2017-01-05T01:02:00.957Z,97.11
2017-01-05T01:03:00.972Z,96.54
2017-01-05T01:04:00.985Z,97.39
2017-01-05T01:05:01.001Z,96.73
2017-01-05T01:06:01.015Z,96.92
2017-01-05T01:07:01.026Z,97.11
2017-01-05T01:09:01.058Z,97.11
2017-01-05T01:11:01.084Z,96.54
2017-01-05T01:12:01.099Z,97.01
2017-01-05T01:13:01.112Z,96.73
2017-01-05T01:14:16.044Z,96.83
2017-01-05T01:15:01.143Z,97.01
2017-01-05T01:16:01.156Z,96.64
2017-01-05T01:17:01.170Z,96.73
2017-01-05T01:18:01.185Z,97.11
2017-01-05T01:19:01.199Z,96.92
2017-01-05T01:20:01.212Z,96.73
2017-01-05T01:21:01.226Z,97.11
2017-01-05T01:22:01.239Z,96.64
2017-01-05T01:23:01.254Z,97.01
2017-01-05T01:24:01.267Z,97.01
2017-01-05T01:25:01.281Z,96.92
2017-01-05T01:26:01.296Z,96.64
2017-01-05T01:27:01.311Z,97.3
2017-01-05T01:28:01.326Z,97.2
2017-01-05T01:29:01.339Z,97.86
2017-01-05T01:30:16.271Z,97.77
2017-01-05T01:31:01.370Z,97.39
2017-01-05T01:32:01.384Z,98.14
2017-01-05T01:33:01.395Z,98.14
2017-01-05T01:34:01.411Z,98.81
2017-01-05T01:35:01.424Z,98.33
2017-01-05T01:36:01.437Z,98.71
2017-01-05T01:37:01.454Z,98.14
2017-01-05T01:38:01.466Z,98.43
2017-01-05T01:39:01.481Z,98.43
2017-01-05T01:40:01.495Z,98.62
2017-01-05T01:42:01.526Z,98.43
2017-01-05T01:43:01.537Z,98.43
2017-01-05T01:44:01.552Z,98.43
2017-01-05T01:45:01.566Z,98.24
2017-01-05T01:46:16.497Z,98.43
2017-01-05T01:47:01.595Z,98.9
2017-01-05T01:48:01.609Z,98.62
2017-01-05T01:49:01.623Z,99
2017-01-05T01:50:01.641Z,98.81
2017-01-05T01:51:01.651Z,99
2017-01-05T01:52:01.669Z,99.28
2017-01-05T01:53:01.679Z,99.09
2017-01-05T01:55:01.707Z,98.9
2017-01-05T01:56:01.726Z,99
2017-01-05T01:57:01.735Z,98.62
2017-01-05T01:58:01.752Z,98.81
2017-01-05T01:59:01.766Z,98.81
2017-01-05T02:00:01.781Z,98.71
2017-01-05T02:01:01.792Z,98.52
2017-01-05T02:02:16.724Z,99
2017-01-05T02:03:01.821Z,98.81
2017-01-05T02:04:01.846Z,98.71
2017-01-05T02:05:01.849Z,99
2017-01-05T02:06:01.863Z,98.9
2017-01-05T02:07:01.879Z,98.62
2017-01-05T02:08:01.894Z,98.43
2017-01-05T02:09:01.956Z,98.52
2017-01-05T02:10:01.920Z,98.43
2017-01-05T02:12:01.950Z,98.24
2017-01-05T02:15:01.992Z,98.52
2017-01-05T02:16:02.006Z,98.33
2017-01-05T02:17:16.938Z,97.77
2017-01-05T02:18:02.037Z,98.24
2017-01-05T02:19:02.048Z,97.96
2017-01-05T02:20:02.064Z,97.39
2017-01-05T02:21:02.077Z,96.64
2017-01-05T02:22:02.091Z,96.73
2017-01-05T02:23:02.107Z,96.64
2017-01-05T02:24:02.119Z,96.83
2017-01-05T02:25:02.134Z,96.73
2017-01-05T02:26:02.148Z,96.64
2017-01-05T02:27:02.161Z,96.73
2017-01-05T02:28:02.178Z,97.49
2017-01-05T02:29:02.191Z,97.39
2017-01-05T02:30:02.204Z,97.3
2017-01-05T02:31:02.218Z,97.01
2017-01-05T02:32:02.234Z,96.54
2017-01-05T02:33:02.248Z,96.83
2017-01-05T02:34:02.260Z,96.54
2017-01-05T02:35:02.274Z,96.64
2017-01-05T02:36:02.297Z,96.73
2017-01-05T02:37:02.306Z,96.73
2017-01-05T02:38:02.315Z,96.92
2017-01-05T02:39:02.333Z,96.54
2017-01-05T02:40:02.344Z,96.54
2017-01-05T02:41:02.359Z,96.64
2017-01-05T02:42:02.371Z,96.92
2017-01-05T02:43:02.386Z,96.73
2017-01-05T02:46:02.428Z,97.2
2017-01-05T02:47:02.444Z,96.64
2017-01-05T02:48:02.455Z,96.54
2017-01-05T02:49:17.387Z,97.2
2017-01-05T02:50:02.485Z,97.2
2017-01-05T02:51:02.497Z,97.2
2017-01-05T02:52:02.514Z,97.77
2017-01-05T02:53:02.525Z,97.86
2017-01-05T02:54:02.540Z,97.11
2017-01-05T02:55:02.555Z,97.3
2017-01-05T02:56:02.568Z,97.67
2017-01-05T02:57:02.582Z,97.58
2017-01-05T02:58:02.596Z,97.58
2017-01-05T02:59:02.608Z,97.96
2017-01-05T03:01:02.638Z,97.91
2017-01-05T03:02:02.651Z,97.06
2017-01-05T03:03:02.668Z,97.58
2017-01-05T03:04:02.678Z,97.44
2017-01-05T03:05:17.610Z,97.77
2017-01-05T03:06:02.707Z,97.67
2017-01-05T03:07:02.722Z,97.63
2017-01-05T03:08:02.733Z,97.63
2017-01-05T03:09:02.758Z,97.72
2017-01-05T03:10:02.767Z,98
2017-01-05T03:11:02.776Z,97.77
2017-01-05T03:13:02.809Z,97.3
2017-01-05T03:14:02.817Z,97.06
2017-01-05T03:15:02.831Z,97.3
2017-01-05T03:16:02.844Z,97.44
2017-01-05T03:17:02.860Z,97.63
2017-01-05T03:18:02.872Z,97.2
2017-01-05T03:19:02.888Z,97.06
2017-01-05T03:20:02.900Z,97.96
2017-01-05T03:21:17.831Z,96.83
2017-01-05T03:22:02.928Z,97.11
2017-01-05T03:23:02.941Z,97.2
2017-01-05T03:24:02.960Z,97.39
2017-01-05T03:25:02.971Z,97.39
2017-01-05T03:26:02.982Z,98.05
2017-01-05T03:27:02.998Z,97.01
2017-01-05T03:28:03.010Z,97.25
2017-01-05T03:29:03.024Z,97.53
2017-01-05T03:30:03.038Z,97.72
2017-01-05T03:33:03.085Z,98.28
2017-01-05T03:34:03.093Z,98.28
2017-01-05T03:35:03.108Z,98.38
2017-01-05T03:36:03.120Z,97.81
2017-01-05T03:37:18.052Z,98
2017-01-05T03:38:03.151Z,98.33
2017-01-05T03:39:03.164Z,98
2017-01-05T03:40:03.176Z,97.63
2017-01-05T03:41:03.192Z,98
2017-01-05T03:42:03.203Z,98
2017-01-05T03:43:03.225Z,97.91
2017-01-05T03:44:03.231Z,97.72
2017-01-05T03:45:03.245Z,98.19
2017-01-05T03:46:03.288Z,98.33
2017-01-05T03:47:03.272Z,97.72
2017-01-05T03:48:03.288Z,97.53
2017-01-05T03:49:03.302Z,97.49
2017-01-05T03:50:03.315Z,97.15
2017-01-05T03:51:03.330Z,97.44
2017-01-05T03:52:18.260Z,98.05
2017-01-05T03:53:03.358Z,97.86
2017-01-05T03:54:03.382Z,97.86
2017-01-05T03:55:03.384Z,97.11
2017-01-05T03:56:03.398Z,97.2
2017-01-05T03:57:03.412Z,97.11
2017-01-05T03:58:03.426Z,97.49
2017-01-05T03:59:03.440Z,97.3
2017-01-05T04:00:03.454Z,97.3
2017-01-05T04:01:03.467Z,97.3
2017-01-05T04:02:03.486Z,97.11
2017-01-05T04:03:03.495Z,97.39
2017-01-05T04:04:03.510Z,97.39
2017-01-05T04:05:03.524Z,97.3
2017-01-05T04:06:03.536Z,97.49
2017-01-05T04:07:03.551Z,97.2
2017-01-05T04:08:03.566Z,96.73
2017-01-05T04:09:03.577Z,97.2
2017-01-05T04:10:03.592Z,96.68
2017-01-05T04:11:03.608Z,97.06
2017-01-05T04:12:03.620Z,97.34
2017-01-05T04:13:03.633Z,97.06
2017-01-05T04:14:03.647Z,97.06
2017-01-05T04:15:03.664Z,97.44
2017-01-05T04:16:03.673Z,97.25
2017-01-05T04:17:03.691Z,97.06
2017-01-05T04:19:03.717Z,96.96
2017-01-05T04:20:03.731Z,96.87
2017-01-05T04:21:04.131Z,97.15
2017-01-05T04:22:03.757Z,96.87
2017-01-05T04:23:03.770Z,96.49
2017-01-05T04:24:18.702Z,96.59
2017-01-05T04:25:03.800Z,96.78
2017-01-05T04:26:03.812Z,96.68
2017-01-05T04:27:03.825Z,96.68
2017-01-05T04:28:03.839Z,96.87
2017-01-05T04:29:03.854Z,96.59
2017-01-05T04:30:03.869Z,97.06
2017-01-05T04:31:03.881Z,97.06
2017-01-05T04:32:03.895Z,97.34
2017-01-05T04:33:03.908Z,97.06
2017-01-05T04:34:03.921Z,96.96
2017-01-05T04:35:03.936Z,96.68
2017-01-05T04:36:03.951Z,96.96
2017-01-05T04:37:03.963Z,96.87
2017-01-05T04:38:03.976Z,96.87
2017-01-05T04:39:03.991Z,97.15
2017-01-05T04:40:18.921Z,96.78
2017-01-05T04:41:04.017Z,96.59
2017-01-05T04:42:04.032Z,96.3
2017-01-05T04:43:04.044Z,96.78
2017-01-05T04:44:04.066Z,96.49
2017-01-05T04:46:04.084Z,96.59
2017-01-05T04:47:04.100Z,96.59
2017-01-05T04:48:04.113Z,96.49
2017-01-05T04:49:04.127Z,96.78
2017-01-05T04:51:04.155Z,97.06
2017-01-05T04:52:04.169Z,97.06
2017-01-05T04:53:04.180Z,96.78
2017-01-05T04:54:04.194Z,96.49
2017-01-05T04:55:04.209Z,97.44
2017-01-05T04:56:19.139Z,97.44
2017-01-05T04:57:04.236Z,97.15
2017-01-05T04:58:04.250Z,97.25
2017-01-05T04:59:04.264Z,97.15
2017-01-05T05:00:04.282Z,97.44
2017-01-05T05:01:04.290Z,97.15
2017-01-05T05:02:04.303Z,97.44
2017-01-05T05:03:04.318Z,97.06
2017-01-05T05:04:04.331Z,97.25
2017-01-05T05:05:04.343Z,97.34
2017-01-05T05:08:04.385Z,97.25
2017-01-05T05:09:04.400Z,97.15
2017-01-05T05:10:04.411Z,97.25
2017-01-05T05:11:04.426Z,97.15
2017-01-05T05:12:19.355Z,97.34
2017-01-05T05:13:04.452Z,97.34
2017-01-05T05:14:04.465Z,97.15
2017-01-05T05:15:04.479Z,97.72
2017-01-05T05:16:04.493Z,97.15
2017-01-05T05:17:04.505Z,97.72
2017-01-05T05:18:04.519Z,97.81
2017-01-05T05:19:04.532Z,97.25
2017-01-05T05:20:04.548Z,97.15
2017-01-05T05:21:04.559Z,97.15
2017-01-05T05:24:04.599Z,97.63
2017-01-05T05:25:04.643Z,97.91
2017-01-05T05:26:04.630Z,98.1
2017-01-05T05:27:19.557Z,98.19
2017-01-05T05:28:04.655Z,98.57
2017-01-05T05:29:04.670Z,98.95
2017-01-05T05:30:04.687Z,99.33
2017-01-05T05:31:04.694Z,99.33
2017-01-05T05:32:04.709Z,99.61
2017-01-05T05:33:04.750Z,99.99
2017-01-05T05:34:04.735Z,99.99
2017-01-05T05:35:04.747Z,99.89
2017-01-05T05:36:04.760Z,99.42
2017-01-05T05:37:04.774Z,99.52
2017-01-05T05:39:04.803Z,99.14
2017-01-05T05:40:04.816Z,99.33
2017-01-05T05:41:04.827Z,99.52
2017-01-05T05:42:04.843Z,98.85
2017-01-05T05:43:04.855Z,99.04
2017-01-05T05:44:04.869Z,98.76
2017-01-05T05:45:04.881Z,98.85
2017-01-05T05:46:04.896Z,98.38
2017-01-05T05:47:04.910Z,98.38
2017-01-05T05:48:04.922Z,98.28
2017-01-05T05:49:04.935Z,98.19
2017-01-05T05:50:04.949Z,98.1
2017-01-05T05:51:04.963Z,98.38
2017-01-05T05:53:04.993Z,98.66
2017-01-05T05:54:05.010Z,98.85
2017-01-05T05:55:05.019Z,98.47
2017-01-05T05:56:05.029Z,98.66
2017-01-05T05:57:05.043Z,98.1
2017-01-05T05:58:05.055Z,98.28
2017-01-05T05:59:19.986Z,98.57
2017-01-05T06:00:05.083Z,98.38
2017-01-05T06:01:05.097Z,98.38
2017-01-05T06:02:05.109Z,98.85
2017-01-05T06:03:05.133Z,99.04
2017-01-05T06:04:05.138Z,98.76
2017-01-05T06:05:05.152Z,98.57
2017-01-05T06:06:05.162Z,98.57
2017-01-05T06:07:05.181Z,98.66
2017-01-05T06:09:05.232Z,98.57
2017-01-05T06:11:05.229Z,99.04
2017-01-05T06:12:05.245Z,99.42
2017-01-05T06:13:05.255Z,98.66
2017-01-05T06:14:05.269Z,98.8
2017-01-05T06:15:20.199Z,98.05
2017-01-05T06:16:05.295Z,98.1
2017-01-05T06:17:05.308Z,98.1
2017-01-05T06:19:05.335Z,98.19
2017-01-05T06:20:05.347Z,97.81
2017-01-05T06:21:05.360Z,97.72
2017-01-05T06:22:05.374Z,97.72
2017-01-05T06:23:05.387Z,97.2
2017-01-05T06:24:05.399Z,97.2
2017-01-05T06:25:05.412Z,97.2
2017-01-05T06:26:05.430Z,97.2
2017-01-05T06:27:05.439Z,97.29
2017-01-05T06:28:05.451Z,97.39
2017-01-05T06:29:05.464Z,97.67
2017-01-05T06:30:05.478Z,97.77
2017-01-05T06:31:20.407Z,97.58
2017-01-05T06:32:05.506Z,98.38
2017-01-05T06:33:05.517Z,97.48
2017-01-05T06:34:05.531Z,97.96
2017-01-05T06:35:05.544Z,98
2017-01-05T06:36:05.555Z,98.24
2017-01-05T06:37:05.569Z,98.52
2017-01-05T06:38:05.583Z,98.66
2017-01-05T06:39:05.595Z,98.85
2017-01-05T06:40:05.609Z,98.61
2017-01-05T06:41:05.621Z,98.52
2017-01-05T06:43:05.650Z,98.99
2017-01-05T06:44:05.661Z,99.75
2017-01-05T06:45:05.674Z,99.65
2017-01-05T06:46:05.691Z,99.99
2017-01-05T06:47:20.617Z,99.99
2017-01-05T06:48:05.714Z,99.99
2017-01-05T06:49:05.728Z,99.99
2017-01-05T06:50:05.739Z,99.99
2017-01-05T06:51:05.755Z,99.99
2017-01-05T06:52:05.767Z,99.99
2017-01-05T06:53:05.778Z,99.99
2017-01-05T06:54:05.792Z,99.99
2017-01-05T06:55:05.806Z,99.99
2017-01-05T06:56:05.820Z,99.99
2017-01-05T06:57:05.831Z,99.99
2017-01-05T06:59:05.858Z,99.99
2017-01-05T07:00:05.871Z,99.99
2017-01-05T07:01:05.885Z,99.99
2017-01-05T07:02:20.815Z,99.99
2017-01-05T07:03:05.911Z,99.99
2017-01-05T07:04:05.927Z,99.99
2017-01-05T07:05:05.936Z,99.99
2017-01-05T07:06:05.952Z,99.99
2017-01-05T07:07:05.964Z,99.99
2017-01-05T07:08:05.977Z,99.99
2017-01-05T07:09:05.997Z,99.99
2017-01-05T07:10:06.003Z,99.99
2017-01-05T07:11:06.019Z,99.99
2017-01-05T07:14:06.058Z,99.99
2017-01-05T07:15:06.069Z,99.99
2017-01-05T07:16:06.083Z,99.99
2017-01-05T07:17:06.095Z,99.99
2017-01-05T07:18:06.110Z,99.99
2017-01-05T07:19:06.123Z,99.99
2017-01-05T07:20:06.136Z,99.99
2017-01-05T07:21:06.151Z,99.99
2017-01-05T07:22:06.162Z,99.71
2017-01-05T07:23:06.175Z,99.42
2017-01-05T07:24:06.189Z,99.52
2017-01-05T07:25:06.204Z,99.52
2017-01-05T07:26:06.248Z,98.57
2017-01-05T07:27:06.230Z,98.95
2017-01-05T07:28:06.242Z,98.95
2017-01-05T07:29:06.263Z,99.52
2017-01-05T07:30:06.269Z,99.99
2017-01-05T07:31:06.282Z,99.99
2017-01-05T07:32:06.297Z,99.99
2017-01-05T07:33:06.312Z,99.99
2017-01-05T07:34:21.239Z,99.99
2017-01-05T07:35:06.338Z,99.99
2017-01-05T07:36:06.350Z,99.99
2017-01-05T07:37:06.361Z,99.99
2017-01-05T07:38:06.380Z,99.99
2017-01-05T07:39:06.390Z,99.99
2017-01-05T07:40:06.401Z,99.99
2017-01-05T07:41:06.415Z,99.99
2017-01-05T07:42:06.429Z,99.99
2017-01-05T07:43:06.443Z,99.99
2017-01-05T07:44:06.454Z,99.99
2017-01-05T07:45:06.469Z,99.99
2017-01-05T07:47:06.498Z,99.99
2017-01-05T07:48:06.507Z,99.99
2017-01-05T07:49:06.521Z,99.99
2017-01-05T07:50:21.452Z,99.99
2017-01-05T07:51:06.549Z,99.99
2017-01-05T07:52:06.561Z,99.99
2017-01-05T07:53:06.575Z,99.99
2017-01-05T07:54:06.588Z,99.99
2017-01-05T07:55:06.602Z,99.99
2017-01-05T07:57:06.629Z,99.99
2017-01-05T07:58:06.643Z,99.99
2017-01-05T07:59:06.654Z,99.99
2017-01-05T08:02:06.700Z,99.99
2017-01-05T08:03:06.710Z,99.99
2017-01-05T08:04:06.723Z,99.99
2017-01-05T08:05:06.734Z,99.99
2017-01-05T08:06:21.665Z,99.99
2017-01-05T08:07:06.761Z,99.99
2017-01-05T08:08:06.777Z,99.99
2017-01-05T08:09:06.787Z,99.99
2017-01-05T08:10:06.802Z,99.99
2017-01-05T08:11:06.812Z,99.99
2017-01-05T08:12:06.828Z,99.99
2017-01-05T08:13:06.841Z,99.99
2017-01-05T08:14:06.851Z,99.99
2017-01-05T08:15:06.868Z,99.99
2017-01-05T08:16:06.879Z,99.99
2017-01-05T08:17:06.893Z,99.99
2017-01-05T08:18:06.907Z,99.99
2017-01-05T08:19:06.919Z,99.99
2017-01-05T08:20:06.936Z,99.99
2017-01-05T08:21:06.946Z,99.99
2017-01-05T08:22:21.876Z,99.99
2017-01-05T08:23:06.972Z,99.99
2017-01-05T08:24:06.987Z,99.99
2017-01-05T08:25:06.999Z,99.99
2017-01-05T08:26:07.015Z,99.99
2017-01-05T08:27:07.026Z,99.99
2017-01-05T08:28:07.038Z,99.99
2017-01-05T08:29:07.053Z,99.99
2017-01-05T08:30:07.064Z,99.99
2017-01-05T08:31:07.079Z,99.99
2017-01-05T08:32:07.092Z,99.99
2017-01-05T08:33:07.107Z,99.99
2017-01-05T08:34:07.121Z,99.99
2017-01-05T08:35:07.131Z,99.99
2017-01-05T08:36:07.144Z,99.99
2017-01-05T08:37:22.075Z,99.99
2017-01-05T08:38:07.173Z,99.99
2017-01-05T08:39:07.185Z,99.99
2017-01-05T08:40:07.196Z,99.99
2017-01-05T08:41:07.211Z,99.99
2017-01-05T08:42:07.223Z,99.99
2017-01-05T08:43:07.235Z,99.99
2017-01-05T08:44:07.251Z,99.99
2017-01-05T08:45:07.263Z,99.99
2017-01-05T08:46:07.276Z,99.99
2017-01-05T08:47:07.289Z,99.99
2017-01-05T08:48:07.304Z,99.99
2017-01-05T08:49:07.316Z,99.99
2017-01-05T08:50:07.329Z,99.99
2017-01-05T08:51:07.354Z,99.99
2017-01-05T08:52:07.358Z,99.99
2017-01-05T08:53:07.371Z,99.99
2017-01-05T08:54:07.383Z,99.99
2017-01-05T08:55:07.398Z,99.99
2017-01-05T08:56:07.410Z,99.99
2017-01-05T08:57:07.422Z,99.99
2017-01-05T08:58:07.436Z,99.99
2017-01-05T08:59:07.450Z,99.99
2017-01-05T09:00:07.469Z,99.99
2017-01-05T09:01:07.482Z,99.99
2017-01-05T09:02:07.490Z,99.33
2017-01-05T09:03:07.508Z,99.84
2017-01-05T09:04:07.516Z,99.42
2017-01-05T09:05:07.531Z,99.23
2017-01-05T09:06:07.543Z,99.33
2017-01-05T09:07:07.580Z,99.14
2017-01-05T09:08:07.569Z,99.14
2017-01-05T09:09:22.502Z,99.52
2017-01-05T09:10:07.598Z,98.66
2017-01-05T09:11:07.611Z,98.66
2017-01-05T09:12:07.624Z,98.76
2017-01-05T09:13:07.640Z,98.57
2017-01-05T09:14:07.653Z,98.57
2017-01-05T09:15:07.665Z,98.85
2017-01-05T09:16:07.678Z,98.76
2017-01-05T09:17:07.692Z,99.33
2017-01-05T09:18:07.706Z,99.33
2017-01-05T09:19:07.718Z,98.57
2017-01-05T09:21:07.746Z,98.66
2017-01-05T09:22:07.762Z,99.33
2017-01-05T09:23:07.773Z,99.52
2017-01-05T09:24:07.788Z,99.99
2017-01-05T09:25:22.719Z,99.89
2017-01-05T09:26:07.825Z,99.61
2017-01-05T09:27:07.828Z,99.99
2017-01-05T09:28:07.845Z,99.99
2017-01-05T09:29:07.857Z,99.99
2017-01-05T09:30:07.870Z,99.99
2017-01-05T09:31:07.885Z,99.99
2017-01-05T09:32:07.899Z,99.99
2017-01-05T09:33:07.913Z,99.99
2017-01-05T09:34:07.928Z,99.84
2017-01-05T09:35:07.938Z,99.99
2017-01-05T09:36:07.954Z,99.99
2017-01-05T09:37:07.967Z,99.8
2017-01-05T09:38:07.983Z,99.52
2017-01-05T09:39:07.994Z,99.23
2017-01-05T09:40:08.010Z,98.76
2017-01-05T09:41:22.939Z,98.66
2017-01-05T09:42:08.035Z,98.61
2017-01-05T09:43:08.052Z,98.76
2017-01-05T09:44:08.065Z,98.66
2017-01-05T09:45:08.078Z,98.19
2017-01-05T09:46:08.393Z,98.28
2017-01-05T09:47:08.108Z,97.72
2017-01-05T09:48:08.120Z,96.68
2017-01-05T09:49:08.133Z,95.97
2017-01-05T09:50:08.147Z,95.59
2017-01-05T09:52:08.178Z,95.69
2017-01-05T09:53:08.193Z,95.88
2017-01-05T09:54:08.205Z,94.74
2017-01-05T09:55:08.221Z,94.79
2017-01-05T09:56:08.233Z,95.17
2017-01-05T09:57:23.165Z,94.98
2017-01-05T09:58:08.263Z,94.41
2017-01-05T09:59:08.276Z,94.03
2017-01-05T10:00:08.289Z,93.75
2017-01-05T10:01:08.304Z,93.28
2017-01-05T10:02:08.318Z,93.09
2017-01-05T10:03:08.362Z,92.43
2017-01-05T10:04:08.347Z,92.05
2017-01-05T10:05:08.363Z,91.01
2017-01-05T10:06:08.375Z,91.29
2017-01-05T10:07:08.389Z,90.77
2017-01-05T10:08:08.404Z,90.59
2017-01-05T10:09:08.418Z,90.63
2017-01-05T10:10:08.431Z,90.96
2017-01-05T10:11:08.446Z,90.73
2017-01-05T10:12:23.377Z,90.44
2017-01-05T10:13:08.475Z,89.69
2017-01-05T10:14:08.489Z,89.78
2017-01-05T10:15:08.503Z,89.4
2017-01-05T10:16:08.516Z,89.45
2017-01-05T10:17:08.534Z,88.79
2017-01-05T10:18:08.540Z,88.79
2017-01-05T10:19:08.588Z,89.45
2017-01-05T10:20:08.570Z,89.12
2017-01-05T10:21:08.585Z,88.93
2017-01-05T10:22:08.597Z,88.46
2017-01-05T10:23:08.610Z,88.74
2017-01-05T10:24:08.627Z,88.93
2017-01-05T10:25:08.638Z,88.84
2017-01-05T10:26:08.651Z,88.17
2017-01-05T10:27:08.666Z,87.32
2017-01-05T10:28:08.680Z,87.23
2017-01-05T10:29:08.693Z,87.04
2017-01-05T10:30:08.706Z,87.04
2017-01-05T10:31:08.721Z,86.76
2017-01-05T10:32:08.733Z,86.76
2017-01-05T10:33:08.748Z,86.38
2017-01-05T10:34:08.763Z,86.38
2017-01-05T10:35:08.776Z,86.47
2017-01-05T10:36:08.789Z,86
2017-01-05T10:37:08.802Z,85.43
2017-01-05T10:38:08.817Z,84.68
2017-01-05T10:39:08.833Z,84.49
2017-01-05T10:41:08.860Z,84.3
2017-01-05T10:42:08.874Z,84.96
2017-01-05T10:43:08.886Z,84.2
2017-01-05T10:44:23.816Z,84.2
2017-01-05T10:45:08.912Z,83.73
2017-01-05T10:46:08.928Z,83.26
2017-01-05T10:47:08.941Z,83.26
2017-01-05T10:48:08.955Z,82.79
2017-01-05T10:49:08.970Z,82.88
2017-01-05T10:50:08.983Z,82.88
2017-01-05T10:51:08.995Z,83.17
2017-01-05T10:52:09.014Z,82.6
2017-01-05T10:53:09.023Z,81.09
2017-01-05T10:54:09.038Z,80.9
2017-01-05T10:55:09.051Z,80.14
2017-01-05T10:56:09.065Z,80.52
2017-01-05T10:57:09.080Z,79.67
2017-01-05T10:58:09.092Z,80.05
2017-01-05T10:59:09.108Z,79.86
2017-01-05T11:00:24.037Z,79.67
2017-01-05T11:01:09.134Z,79
2017-01-05T11:02:09.149Z,79
2017-01-05T11:03:09.161Z,79.1
2017-01-05T11:04:09.176Z,79.29
2017-01-05T11:05:09.191Z,78.53
2017-01-05T11:06:09.202Z,78.91
2017-01-05T11:07:09.222Z,79.19
2017-01-05T11:08:09.230Z,79
2017-01-05T11:09:09.243Z,79.38
2017-01-05T11:10:09.259Z,79.38
2017-01-05T11:12:09.286Z,78.53
2017-01-05T11:13:09.299Z,77.78
2017-01-05T11:14:09.313Z,77.02
2017-01-05T11:15:09.326Z,76.74
2017-01-05T11:16:24.257Z,75.51
2017-01-05T11:17:09.354Z,75.79
2017-01-05T11:18:09.368Z,75.42
2017-01-05T11:19:09.384Z,76.07
2017-01-05T11:20:09.397Z,75.51
2017-01-05T11:21:09.410Z,75.6
2017-01-05T11:22:09.424Z,74.66
2017-01-05T11:23:09.437Z,74.28
2017-01-05T11:24:09.451Z,74.19
2017-01-05T11:25:09.465Z,73.52
2017-01-05T11:27:09.492Z,74
2017-01-05T11:28:09.507Z,74.28
2017-01-05T11:29:09.519Z,73.71
2017-01-05T11:30:09.534Z,73.9
2017-01-05T11:31:09.548Z,74.76
2017-01-05T11:32:24.478Z,74.09
2017-01-05T11:33:09.575Z,74.57
2017-01-05T11:34:09.590Z,74.47
2017-01-05T11:35:09.601Z,74.38
2017-01-05T11:36:09.616Z,72.77
2017-01-05T11:37:09.631Z,71.83
2017-01-05T11:38:09.643Z,71.16
2017-01-05T11:39:09.659Z,70.88
2017-01-05T11:40:09.672Z,70.4
2017-01-05T11:43:09.718Z,70.5
2017-01-05T11:44:09.728Z,70.31
2017-01-05T11:45:09.742Z,70.78
2017-01-05T11:46:09.756Z,71.16
2017-01-05T11:47:24.686Z,70.69
2017-01-05T11:48:09.782Z,70.97
2017-01-05T11:49:09.797Z,70.59
2017-01-05T11:50:09.816Z,70.12
2017-01-05T11:51:09.824Z,70.78
2017-01-05T11:52:09.837Z,70.69
2017-01-05T11:53:09.850Z,70.78
2017-01-05T11:54:09.864Z,71.16
2017-01-05T11:55:09.878Z,71.07
2017-01-05T11:56:09.891Z,70.97
2017-01-05T11:57:09.916Z,70.69
2017-01-05T11:58:09.919Z,72.14
2017-01-05T11:59:09.936Z,72.71
2017-01-05T12:00:10.343Z,72.14
2017-01-05T12:01:09.966Z,72.33
2017-01-05T12:02:09.976Z,71.77
2017-01-05T12:03:09.990Z,71.95
2017-01-05T12:04:10.003Z,71.73
2017-01-05T12:05:10.018Z,71.92
2017-01-05T12:06:10.032Z,72.58
2017-01-05T12:07:10.048Z,73.14
2017-01-05T12:08:10.059Z,72.86
2017-01-05T12:09:10.074Z,73.14
2017-01-05T12:10:10.089Z,74.19
2017-01-05T12:11:10.103Z,74.95
2017-01-05T12:12:10.115Z,75.7
2017-01-05T12:13:10.132Z,75.79
2017-01-05T12:14:10.145Z,75.89
2017-01-05T12:16:10.171Z,75.51
2017-01-05T12:17:10.185Z,75.6
2017-01-05T12:18:10.200Z,75
2017-01-05T12:19:25.129Z,74.53
2017-01-05T12:20:10.227Z,74.71
2017-01-05T12:21:10.240Z,74.24
2017-01-05T12:22:10.254Z,74.34
2017-01-05T12:23:10.266Z,74.15
2017-01-05T12:24:10.283Z,74.15
2017-01-05T12:25:10.298Z,73.68
2017-01-05T12:26:10.307Z,74.05
2017-01-05T12:27:10.327Z,73.68
2017-01-05T12:29:10.347Z,74.05
2017-01-05T12:30:10.364Z,73.96
2017-01-05T12:32:10.388Z,73.02
2017-01-05T12:33:10.405Z,72.73
2017-01-05T12:34:10.415Z,72.73
2017-01-05T12:35:25.348Z,73.02
2017-01-05T12:36:10.443Z,72.92
2017-01-05T12:37:10.656Z,72.96
2017-01-05T12:38:10.470Z,72.58
2017-01-05T12:39:10.483Z,72.39
2017-01-05T12:40:10.497Z,72.11
2017-01-05T12:41:10.510Z,72.3
2017-01-05T12:42:10.526Z,72.2
2017-01-05T12:43:10.539Z,71.73
2017-01-05T12:44:10.550Z,70.97
2017-01-05T12:45:10.564Z,70.21
2017-01-05T12:48:10.605Z,68.99
2017-01-05T12:49:10.619Z,68.61
2017-01-05T12:50:10.634Z,68.67
2017-01-05T12:51:25.565Z,68.29
2017-01-05T12:52:10.660Z,68.67
2017-01-05T12:53:10.775Z,68.67
2017-01-05T12:54:10.687Z,69.9
2017-01-05T12:55:10.700Z,69.56
2017-01-05T12:56:10.716Z,69.65
2017-01-05T12:57:10.729Z,69.33
2017-01-05T12:58:10.743Z,68.95
2017-01-05T12:59:10.755Z,69.62
2017-01-05T13:00:10.768Z,69.71
2017-01-05T13:02:10.795Z,68.57
2017-01-05T13:03:10.811Z,68.95
2017-01-05T13:04:10.821Z,69.24
2017-01-05T13:05:10.837Z,69.24
2017-01-05T13:06:10.850Z,69.05
2017-01-05T13:07:25.780Z,68.67
2017-01-05T13:08:10.877Z,68.39
2017-01-05T13:09:10.892Z,68.67
2017-01-05T13:10:10.902Z,69.33
2017-01-05T13:11:10.914Z,69.33
2017-01-05T13:12:10.928Z,69.43
2017-01-05T13:13:10.941Z,69.33
2017-01-05T13:14:10.953Z,68.95
2017-01-05T13:15:10.968Z,69.24
2017-01-05T13:16:10.981Z,69.24
2017-01-05T13:17:10.993Z,69.14
2017-01-05T13:18:11.008Z,69.24
2017-01-05T13:19:11.049Z,69.05
2017-01-05T13:20:11.031Z,69.14
2017-01-05T13:21:11.048Z,69.05
2017-01-05T13:22:25.976Z,69.33
2017-01-05T13:23:11.071Z,69.71
2017-01-05T13:24:11.084Z,69.43
2017-01-05T13:25:11.097Z,69.05
2017-01-05T13:26:11.109Z,68.39
2017-01-05T13:27:11.123Z,68.57
2017-01-05T13:29:11.151Z,68.57
2017-01-05T13:30:11.163Z,69.05
2017-01-05T13:31:11.174Z,68.57
2017-01-05T13:32:11.188Z,68.48
2017-01-05T13:33:11.202Z,68.57
2017-01-05T13:35:11.227Z,68.67
2017-01-05T13:36:11.240Z,69.52
2017-01-05T13:37:11.254Z,69.37
2017-01-05T13:38:11.269Z,68.99
2017-01-05T13:39:11.279Z,67.76
2017-01-05T13:40:11.294Z,67.38
2017-01-05T13:41:11.308Z,68.23
2017-01-05T13:42:11.320Z,67.47
2017-01-05T13:44:11.347Z,67.54
2017-01-05T13:45:11.361Z,67.91
2017-01-05T13:46:11.374Z,68.67
2017-01-05T13:48:11.407Z,69.14
2017-01-05T13:51:11.444Z,69.24
2017-01-05T13:52:11.459Z,69.33